KSEP/SEP METAR and TAF weather

Enter ICAO airport designator
Station Type Date Time Source
KSEP METAR 2019/02/23 22:55 UTC NOAA

KSEP 232255Z AUTO 27015G31KT 7SM CLR 19/M08 A2992 RMK AO2 T01901077


Station Type Date Time Source
KSEP Decoded METAR 2019/02/23 22:55 UTC NOAA

Stephenville, Clark Field Municipal Airport, TX, United States (KSEP) 32-13N 098-11W 402M
Feb 23, 2019 - 05:55 PM EST / 2019.02.23 2255 UTC
Wind: from the W (270 degrees) at 17 MPH (15 KT) gusting to 36 MPH (31 KT):0
Visibility: 7 mile(s):0
Sky conditions: clear
Temperature: 66.2 F (19.0 C)
Dew Point: 18.1 F (-7.7 C)
Relative Humidity: 15%
Pressure (altimeter): 29.92 in. Hg (1013 hPa)
ob: KSEP 232255Z AUTO 27015G31KT 7SM CLR 19/M08 A2992 RMK AO2 T01901077
cycle: 23

Station Type Date Time Source
KSEP TAF UTC NOAA

Error!


Example: see airport list